Time;durP1;ratioP1;P1;durP2;ratioP2;P2;SDS_P1;SDS_P2;PMS_P1;PMS_P2;Temp;Humidity;BMP_temperature;BMP_pressure;BME280_temperature;BME280_humidity;BME280_pressure;Samples;Min_cycle;Max_cycle;Signal;HPM_P1;HPM_P2
2021/12/03 00:02:22;;;;;;;5.23;2.43;;;;;;;;;;4978550;28;20093;-65
2021/12/03 00:04:49;;;;;;;3.92;2.25;;;;;;;;;;4977648;28;20105;-65
2021/12/03 00:07:16;;;;;;;6.63;2.70;;;;;;;;;;4981800;28;20081;-65
2021/12/03 00:09:42;;;;;;;5.18;2.90;;;;;;;;;;4971106;28;20576;-65
2021/12/03 00:12:09;;;;;;;5.75;3.10;;;;;;;;;;4982087;28;20585;-65
2021/12/03 00:14:35;;;;;;;5.97;2.47;;;;;;;;;;4983001;28;20074;-65
2021/12/03 00:17:03;;;;;;;8.07;2.78;;;;;;;;;;4987426;28;20081;-65
2021/12/03 00:19:30;;;;;;;5.33;2.73;;;;;;;;;;4985040;28;20050;-65
2021/12/03 00:21:57;;;;;;;5.87;2.50;;;;;;;;;;4989231;28;20134;-65
2021/12/03 00:24:23;;;;;;;4.15;2.70;;;;;;;;;;4983553;28;20082;-66
2021/12/03 00:26:49;;;;;;;6.57;2.33;;;;;;;;;;4981450;28;20129;-65
2021/12/03 00:29:16;;;;;;;5.82;2.42;;;;;;;;;;4985626;28;20133;-65
2021/12/03 00:31:43;;;;;;;5.53;3.30;;;;;;;;;;4983790;28;20558;-65
2021/12/03 00:34:09;;;;;;;3.33;2.47;;;;;;;;;;4987053;28;20047;-65
2021/12/03 00:36:36;;;;;;;4.68;2.50;;;;;;;;;;4985750;28;20066;-65
2021/12/03 00:39:04;;;;;;;5.15;2.65;;;;;;;;;;4987262;28;20085;-65
2021/12/03 00:41:34;;;;;;;5.63;2.70;;;;;;;;;;4990914;28;20050;-65
2021/12/03 00:44:01;;;;;;;4.67;2.63;;;;;;;;;;4986213;28;20534;-65
2021/12/03 00:46:28;;;;;;;5.47;2.80;;;;;;;;;;4986521;28;20082;-65
2021/12/03 00:48:55;;;;;;;4.78;2.30;;;;;;;;;;4987359;28;20081;-65
2021/12/03 00:51:22;;;;;;;6.60;2.87;;;;;;;;;;4987361;28;20710;-65
2021/12/03 00:53:49;;;;;;;5.77;2.80;;;;;;;;;;4989548;28;20078;-66
2021/12/03 00:56:16;;;;;;;3.47;2.35;;;;;;;;;;4985491;28;20085;-65
2021/12/03 00:58:43;;;;;;;6.30;2.57;;;;;;;;;;4985750;28;20129;-65
2021/12/03 01:01:10;;;;;;;7.35;2.60;;;;;;;;;;4986894;28;20137;-65
2021/12/03 01:03:37;;;;;;;4.77;2.90;;;;;;;;;;4991409;28;20109;-65
2021/12/03 01:06:05;;;;;;;4.40;2.60;;;;;;;;;;4990232;28;20082;-65
2021/12/03 01:08:31;;;;;;;6.80;3.37;;;;;;;;;;4988570;28;20050;-65
2021/12/03 01:10:58;;;;;;;5.60;2.70;;;;;;;;;;4986600;28;20850;-66
2021/12/03 01:13:25;;;;;;;;;;;;;;;;;;4987563;28;20085;-65
2021/12/03 01:15:51;;;;;;;5.57;2.67;;;;;;;;;;4990816;28;19980;-65
2021/12/03 01:18:18;;;;;;;7.32;3.47;;;;;;;;;;4977693;28;20073;-65
2021/12/03 01:20:45;;;;;;;5.43;3.00;;;;;;;;;;4981299;28;20323;-65
2021/12/03 01:23:12;;;;;;;3.47;2.28;;;;;;;;;;4986915;28;20050;-65
2021/12/03 01:25:39;;;;;;;3.40;2.77;;;;;;;;;;4981363;28;20073;-65
2021/12/03 01:28:07;;;;;;;6.73;2.60;;;;;;;;;;4984815;28;20086;-65
2021/12/03 01:30:33;;;;;;;6.17;3.20;;;;;;;;;;4980821;28;20081;-65
2021/12/03 01:33:00;;;;;;;9.77;3.03;;;;;;;;;;4981947;28;20133;-65
2021/12/03 01:35:28;;;;;;;6.13;2.73;;;;;;;;;;4985703;28;20078;-65
2021/12/03 01:37:54;;;;;;;;;;;;;;;;;;4984826;28;20057;-65
2021/12/03 01:40:23;;;;;;;5.03;2.60;;;;;;;;;;4983435;28;19965;-64
2021/12/03 01:42:50;;;;;;;5.00;2.93;;;;;;;;;;4980670;28;20071;-65
2021/12/03 01:45:19;;;;;;;9.43;2.60;;;;;;;;;;4983087;28;20057;-65
2021/12/03 01:47:47;;;;;;;3.80;2.53;;;;;;;;;;4985437;28;20165;-65
2021/12/03 01:50:15;;;;;;;6.13;3.10;;;;;;;;;;4985236;28;20074;-65
2021/12/03 01:52:41;;;;;;;4.77;2.70;;;;;;;;;;4977662;28;20126;-65
2021/12/03 01:55:09;;;;;;;5.90;2.63;;;;;;;;;;4976591;28;20090;-65
2021/12/03 01:57:36;;;;;;;3.93;2.60;;;;;;;;;;4981303;28;20129;-65
2021/12/03 02:00:12;;;;;;;5.60;2.88;;;;;;;;;;4979836;28;20142;-65
2021/12/03 02:02:39;;;;;;;4.20;2.70;;;;;;;;;;4980924;28;20042;-65
2021/12/03 02:05:06;;;;;;;4.75;2.53;;;;;;;;;;4987539;28;20486;-65
2021/12/03 02:07:32;;;;;;;;;;;;;;;;;;4985304;28;20500;-64
2021/12/03 02:09:59;;;;;;;8.20;2.70;;;;;;;;;;4982954;28;20009;-65
2021/12/03 02:12:26;;;;;;;3.47;2.22;;;;;;;;;;4982538;28;20078;-65
2021/12/03 02:14:52;;;;;;;12.73;3.42;;;;;;;;;;4980570;28;20141;-65
2021/12/03 02:17:19;;;;;;;7.00;3.03;;;;;;;;;;4978712;28;20058;-65
2021/12/03 02:19:46;;;;;;;3.53;2.35;;;;;;;;;;4978865;28;20298;-65
2021/12/03 02:22:12;;;;;;;4.13;2.75;;;;;;;;;;4983084;28;20154;-65
2021/12/03 02:24:39;;;;;;;;;;;;;;;;;;4975296;28;20074;-64
2021/12/03 02:27:06;;;;;;;5.77;2.60;;;;;;;;;;4980277;28;20009;-65
2021/12/03 02:29:32;;;;;;;4.68;2.42;;;;;;;;;;4980950;28;20125;-65
2021/12/03 02:31:59;;;;;;;;;;;;;;;;;;4980610;28;20486;-65
2021/12/03 02:34:25;;;;;;;6.97;2.83;;;;;;;;;;4978124;28;19930;-65
2021/12/03 02:36:52;;;;;;;10.25;3.15;;;;;;;;;;4979362;28;20141;-65
2021/12/03 02:39:18;;;;;;;8.00;2.80;;;;;;;;;;4982815;28;20082;-65
2021/12/03 02:41:45;;;;;;;5.53;2.85;;;;;;;;;;4984830;28;20511;-65
2021/12/03 02:44:12;;;;;;;9.40;2.88;;;;;;;;;;4983934;28;20529;-65
2021/12/03 02:46:38;;;;;;;7.10;3.13;;;;;;;;;;4982772;28;20525;-64
2021/12/03 02:49:06;;;;;;;5.53;3.42;;;;;;;;;;4984675;28;20047;-65
2021/12/03 02:51:32;;;;;;;4.63;2.77;;;;;;;;;;4983638;28;20129;-65
2021/12/03 02:54:00;;;;;;;;;;;;;;;;;;4986004;28;20506;-65
2021/12/03 02:56:27;;;;;;;5.60;2.92;;;;;;;;;;4986310;28;20514;-65
2021/12/03 02:58:53;;;;;;;4.25;2.30;;;;;;;;;;4979269;28;20138;-65
2021/12/03 03:01:20;;;;;;;4.93;2.70;;;;;;;;;;4975460;28;20078;-65
2021/12/03 03:03:47;;;;;;;5.25;2.80;;;;;;;;;;4982901;28;20533;-65
2021/12/03 03:06:13;;;;;;;;;;;;;;;;;;4985752;28;20451;-65
2021/12/03 03:08:42;;;;;;;3.60;2.33;;;;;;;;;;4978122;28;19968;-65
2021/12/03 03:11:09;;;;;;;9.03;2.70;;;;;;;;;;4979046;28;20081;-65
2021/12/03 03:13:36;;;;;;;6.80;2.47;;;;;;;;;;4986309;28;20050;-65
2021/12/03 03:16:03;;;;;;;7.95;3.17;;;;;;;;;;4981069;28;20104;-65
2021/12/03 03:18:30;;;;;;;8.17;3.37;;;;;;;;;;4981047;28;20526;-65
2021/12/03 03:20:59;;;;;;;5.28;2.78;;;;;;;;;;4982738;28;20039;-65
2021/12/03 03:23:26;;;;;;;8.93;3.80;;;;;;;;;;4979211;28;20078;-65
2021/12/03 03:25:53;;;;;;;5.03;3.03;;;;;;;;;;4981178;28;20088;-65
2021/12/03 03:28:22;;;;;;;7.87;3.67;;;;;;;;;;4985944;28;20142;-65
2021/12/03 03:30:51;;;;;;;7.27;3.40;;;;;;;;;;4983115;28;20050;-65
2021/12/03 03:33:18;;;;;;;8.53;3.27;;;;;;;;;;4974803;28;20089;-65
2021/12/03 03:35:44;;;;;;;9.25;2.83;;;;;;;;;;4981308;28;20146;-65
2021/12/03 03:38:11;;;;;;;5.28;3.05;;;;;;;;;;4981220;28;20050;-65
2021/12/03 03:40:38;;;;;;;10.25;3.08;;;;;;;;;;4981237;28;20090;-64
2021/12/03 03:43:06;;;;;;;5.33;2.90;;;;;;;;;;4981168;28;20134;-65
2021/12/03 03:45:33;;;;;;;5.93;3.17;;;;;;;;;;4982992;28;20050;-65
2021/12/03 03:48:00;;;;;;;6.23;3.10;;;;;;;;;;4982712;28;20134;-65
2021/12/03 03:50:27;;;;;;;4.28;3.00;;;;;;;;;;4982946;28;20130;-65
2021/12/03 03:52:54;;;;;;;5.20;3.07;;;;;;;;;;4983045;28;20100;-65
2021/12/03 03:55:21;;;;;;;5.40;3.70;;;;;;;;;;4983888;28;20133;-64
2021/12/03 03:57:48;;;;;;;5.77;2.83;;;;;;;;;;4985310;28;20085;-65
2021/12/03 04:00:16;;;;;;;7.40;2.97;;;;;;;;;;4980886;28;20104;-65
2021/12/03 04:02:43;;;;;;;9.50;3.53;;;;;;;;;;4981337;28;20133;-65
2021/12/03 04:05:10;;;;;;;6.38;3.13;;;;;;;;;;4988018;28;20050;-65
2021/12/03 04:07:37;;;;;;;6.10;3.43;;;;;;;;;;4986193;28;20086;-65
2021/12/03 04:10:05;;;;;;;6.90;3.13;;;;;;;;;;4980995;28;20182;-65
2021/12/03 04:12:32;;;;;;;7.97;3.13;;;;;;;;;;4981548;28;20046;-65
2021/12/03 04:14:59;;;;;;;;;;;;;;;;;;4983053;28;20531;-64
2021/12/03 04:17:25;;;;;;;5.03;2.87;;;;;;;;;;4988567;28;19968;-65
2021/12/03 04:19:52;;;;;;;4.68;2.72;;;;;;;;;;4986654;28;20089;-65
2021/12/03 04:22:23;;;;;;;4.30;2.60;;;;;;;;;;4987483;28;20086;-65
2021/12/03 04:24:51;;;;;;;8.60;3.20;;;;;;;;;;4985859;28;20498;-65
2021/12/03 04:27:18;;;;;;;8.23;3.53;;;;;;;;;;4986893;28;20074;-65
2021/12/03 04:29:45;;;;;;;12.37;4.20;;;;;;;;;;4986120;28;20081;-65
2021/12/03 04:32:12;;;;;;;6.57;3.67;;;;;;;;;;4985644;28;20475;-65
2021/12/03 04:34:39;;;;;;;7.50;3.40;;;;;;;;;;4984672;28;20129;-65
2021/12/03 04:37:06;;;;;;;6.60;3.60;;;;;;;;;;4988171;28;20479;-65
2021/12/03 04:39:33;;;;;;;8.70;3.95;;;;;;;;;;4983367;28;20189;-65
2021/12/03 04:41:59;;;;;;;9.73;4.20;;;;;;;;;;4981282;28;20494;-65
2021/12/03 04:44:26;;;;;;;7.53;3.60;;;;;;;;;;4976130;28;20138;-65
2021/12/03 04:46:53;;;;;;;6.40;3.30;;;;;;;;;;4981176;28;20125;-65
2021/12/03 04:49:19;;;;;;;7.90;3.72;;;;;;;;;;4981581;28;20464;-65
2021/12/03 04:51:46;;;;;;;7.07;3.45;;;;;;;;;;4981636;28;20078;-65
2021/12/03 04:54:12;;;;;;;6.95;3.30;;;;;;;;;;4982626;28;20085;-65
2021/12/03 04:56:39;;;;;;;5.25;2.92;;;;;;;;;;4982432;28;20138;-65
2021/12/03 04:59:06;;;;;;;6.00;2.90;;;;;;;;;;4992418;28;20045;-65
2021/12/03 05:01:32;;;;;;;6.75;3.13;;;;;;;;;;4984748;28;20454;-65
2021/12/03 05:03:59;;;;;;;7.88;3.70;;;;;;;;;;4989969;28;20112;-65
2021/12/03 05:06:31;;;;;;;6.72;3.90;;;;;;;;;;4973157;28;20113;-65
2021/12/03 05:08:57;;;;;;;6.73;3.00;;;;;;;;;;4986610;28;20050;-65
2021/12/03 05:11:24;;;;;;;5.00;3.53;;;;;;;;;;4982986;28;20081;-65
2021/12/03 05:13:51;;;;;;;7.43;3.05;;;;;;;;;;4982301;28;20054;-65
2021/12/03 05:16:17;;;;;;;5.43;3.08;;;;;;;;;;4985317;28;20101;-65
2021/12/03 05:18:48;;;;;;;7.15;3.72;;;;;;;;;;4977376;28;20054;-64
2021/12/03 05:21:15;;;;;;;9.23;3.67;;;;;;;;;;4984706;28;20293;-65
2021/12/03 05:23:41;;;;;;;4.57;2.72;;;;;;;;;;4981144;28;20081;-65
2021/12/03 05:26:08;;;;;;;6.25;3.00;;;;;;;;;;4982956;28;20128;-65
2021/12/03 05:28:36;;;;;;;7.43;3.30;;;;;;;;;;4983291;28;20082;-65
2021/12/03 05:31:02;;;;;;;8.65;3.70;;;;;;;;;;4984941;28;20149;-65
2021/12/03 05:33:29;;;;;;;6.28;3.15;;;;;;;;;;4984197;28;20473;-65
2021/12/03 05:35:55;;;;;;;8.00;3.30;;;;;;;;;;4981771;28;20574;-65
2021/12/03 05:38:22;;;;;;;6.20;2.50;;;;;;;;;;4983753;28;20097;-65
2021/12/03 05:40:49;;;;;;;;;;;;;;;;;;4985761;28;20057;-65
2021/12/03 05:43:16;;;;;;;8.13;3.47;;;;;;;;;;4984763;28;20008;-65
2021/12/03 05:45:44;;;;;;;7.03;3.57;;;;;;;;;;4986030;28;20108;-65
2021/12/03 05:48:11;;;;;;;7.50;3.90;;;;;;;;;;4980317;28;20154;-65
2021/12/03 05:50:38;;;;;;;8.00;3.70;;;;;;;;;;4985321;28;20101;-65
2021/12/03 05:53:05;;;;;;;6.45;4.00;;;;;;;;;;4988759;28;20176;-65
2021/12/03 05:55:31;;;;;;;6.10;3.22;;;;;;;;;;4986300;28;20089;-65
2021/12/03 05:57:58;;;;;;;9.98;3.35;;;;;;;;;;4984734;28;21001;-65
2021/12/03 06:00:32;;;;;;;6.75;3.50;;;;;;;;;;4984774;28;20115;-65
2021/12/03 06:03:00;;;;;;;8.47;3.47;;;;;;;;;;4985711;28;20179;-65
2021/12/03 06:05:28;;;;;;;6.70;3.45;;;;;;;;;;4977628;28;20046;-65
2021/12/03 06:07:54;;;;;;;5.97;3.03;;;;;;;;;;4984466;28;20152;-65
2021/12/03 06:10:21;;;;;;;;;;;;;;;;;;4986239;28;20475;-65
2021/12/03 06:12:48;;;;;;;7.73;3.50;;;;;;;;;;4983234;28;20393;-65
2021/12/03 06:15:14;;;;;;;7.10;3.35;;;;;;;;;;4985796;28;20498;-65
2021/12/03 06:17:41;;;;;;;;;;;;;;;;;;4983484;28;20061;-64
2021/12/03 06:20:08;;;;;;;7.97;3.10;;;;;;;;;;4984809;28;20652;-65
2021/12/03 06:22:35;;;;;;;6.27;3.63;;;;;;;;;;4981268;28;20372;-65
2021/12/03 06:25:03;;;;;;;7.30;4.07;;;;;;;;;;4985381;28;20082;-65
2021/12/03 06:27:30;;;;;;;8.70;4.00;;;;;;;;;;4981273;28;20514;-65
2021/12/03 06:29:57;;;;;;;9.20;4.38;;;;;;;;;;4986853;28;20077;-65
2021/12/03 06:32:24;;;;;;;10.33;4.50;;;;;;;;;;4981810;28;20138;-65
2021/12/03 06:34:51;;;;;;;11.88;5.38;;;;;;;;;;4978725;28;20144;-65
2021/12/03 06:37:17;;;;;;;12.00;5.47;;;;;;;;;;4985946;28;20594;-65
2021/12/03 06:39:44;;;;;;;31.17;6.43;;;;;;;;;;4982882;28;20137;-65
2021/12/03 06:42:11;;;;;;;33.72;6.43;;;;;;;;;;4979191;28;20141;-65
2021/12/03 06:44:37;;;;;;;24.83;6.63;;;;;;;;;;4971120;28;20526;-65
2021/12/03 06:47:04;;;;;;;20.60;6.35;;;;;;;;;;4981858;28;20141;-65
2021/12/03 06:49:33;;;;;;;21.95;6.03;;;;;;;;;;4978980;28;20082;-65
2021/12/03 06:52:07;;;;;;;29.23;6.63;;;;;;;;;;4980295;28;20080;-65
2021/12/03 06:54:35;;;;;;;14.87;5.40;;;;;;;;;;4987549;28;20077;-65
2021/12/03 06:57:04;;;;;;;36.27;7.30;;;;;;;;;;4977822;28;20050;-65
2021/12/03 06:59:31;;;;;;;18.20;5.83;;;;;;;;;;4976557;28;20122;-65
2021/12/03 07:01:58;;;;;;;27.73;7.20;;;;;;;;;;4977769;28;20054;-65
2021/12/03 07:04:25;;;;;;;20.70;5.80;;;;;;;;;;4977171;28;20146;-65
2021/12/03 07:06:51;;;;;;;31.10;6.95;;;;;;;;;;4980991;28;20141;-65
2021/12/03 07:09:18;;;;;;;46.38;7.72;;;;;;;;;;4983876;28;20054;-65
2021/12/03 07:11:45;;;;;;;29.40;8.95;;;;;;;;;;4986929;28;20517;-65
2021/12/03 07:14:11;;;;;;;33.63;7.03;;;;;;;;;;4983240;28;20085;-65
2021/12/03 07:16:38;;;;;;;33.53;7.07;;;;;;;;;;4982027;28;20125;-65
2021/12/03 07:19:05;;;;;;;38.95;7.15;;;;;;;;;;4979769;28;20136;-65
2021/12/03 07:21:31;;;;;;;26.40;7.03;;;;;;;;;;4980664;28;20524;-65
2021/12/03 07:23:58;;;;;;;17.95;6.53;;;;;;;;;;4983279;28;20089;-65
2021/12/03 07:26:25;;;;;;;16.27;5.68;;;;;;;;;;4983266;28;20459;-65
2021/12/03 07:28:52;;;;;;;15.15;4.57;;;;;;;;;;4978052;28;20145;-65
2021/12/03 07:31:18;;;;;;;;;;;;;;;;;;4979735;28;20125;-65
2021/12/03 07:33:46;;;;;;;18.57;6.63;;;;;;;;;;4974985;28;20028;-65
2021/12/03 07:36:12;;;;;;;17.20;7.20;;;;;;;;;;4977401;28;20078;-65
2021/12/03 07:38:39;;;;;;;18.98;6.43;;;;;;;;;;4973258;28;20082;-65
2021/12/03 07:41:06;;;;;;;16.42;6.20;;;;;;;;;;4987395;28;20058;-65
2021/12/03 07:43:32;;;;;;;13.32;5.43;;;;;;;;;;4979575;28;20085;-65
2021/12/03 07:46:00;;;;;;;16.27;5.88;;;;;;;;;;4979687;28;20129;-65
2021/12/03 07:48:26;;;;;;;19.10;6.30;;;;;;;;;;4987543;28;20050;-65
2021/12/03 07:50:54;;;;;;;15.38;5.95;;;;;;;;;;4987491;28;20078;-65
2021/12/03 07:53:21;;;;;;;19.53;6.80;;;;;;;;;;4987079;28;20089;-65
2021/12/03 07:55:49;;;;;;;15.63;6.53;;;;;;;;;;4985695;28;20133;-66
2021/12/03 07:58:16;;;;;;;14.70;6.57;;;;;;;;;;4985314;28;20086;-65
2021/12/03 08:00:44;;;;;;;22.73;7.07;;;;;;;;;;4986713;28;20112;-65
2021/12/03 08:03:15;;;;;;;18.13;6.70;;;;;;;;;;4982130;28;20585;-65
2021/12/03 08:05:42;;;;;;;17.40;7.25;;;;;;;;;;4981611;28;20047;-65
2021/12/03 08:08:09;;;;;;;14.80;6.50;;;;;;;;;;4986851;28;20089;-65
2021/12/03 08:10:35;;;;;;;20.52;7.10;;;;;;;;;;4983040;28;20074;-65
2021/12/03 08:13:02;;;;;;;12.80;5.65;;;;;;;;;;4980139;28;20074;-65
2021/12/03 08:15:30;;;;;;;21.07;7.43;;;;;;;;;;4977278;28;20089;-65
2021/12/03 08:17:56;;;;;;;15.93;7.00;;;;;;;;;;4985135;28;20086;-65
2021/12/03 08:20:23;;;;;;;13.73;5.72;;;;;;;;;;4984457;28;20494;-65
2021/12/03 08:22:50;;;;;;;22.95;7.97;;;;;;;;;;4986727;28;20054;-65
2021/12/03 08:25:16;;;;;;;16.15;6.68;;;;;;;;;;4987219;28;20129;-65
2021/12/03 08:27:43;;;;;;;17.35;7.32;;;;;;;;;;4984580;28;20082;-65
2021/12/03 08:30:13;;;;;;;17.87;7.30;;;;;;;;;;4984412;28;20578;-65
2021/12/03 08:32:40;;;;;;;19.27;7.80;;;;;;;;;;4984254;28;20078;-65
2021/12/03 08:35:07;;;;;;;15.23;6.90;;;;;;;;;;4987688;28;20085;-65
2021/12/03 08:37:34;;;;;;;21.55;7.20;;;;;;;;;;4982851;28;20058;-65
2021/12/03 08:40:01;;;;;;;18.23;6.70;;;;;;;;;;4982732;28;20089;-65
2021/12/03 08:42:27;;;;;;;17.75;7.63;;;;;;;;;;4980337;28;20149;-65
2021/12/03 08:44:54;;;;;;;20.50;7.28;;;;;;;;;;4979214;28;20078;-65
2021/12/03 08:47:20;;;;;;;19.98;7.18;;;;;;;;;;4980301;28;20137;-66
2021/12/03 08:49:57;;;;;;;16.17;6.88;;;;;;;;;;4982904;28;20047;-65
2021/12/03 08:54:55;;;;;;;21.20;8.30;;;;;;;;;;4984199;28;20406;-65
2021/12/03 08:57:24;;;;;;;22.50;7.47;;;;;;;;;;4980878;28;20112;-65
2021/12/03 08:59:52;;;;;;;14.97;6.27;;;;;;;;;;4985222;28;20113;-65
2021/12/03 09:02:18;;;;;;;16.70;7.93;;;;;;;;;;4985376;28;20113;-65
2021/12/03 09:04:45;;;;;;;16.30;5.75;;;;;;;;;;4987245;28;20133;-65
2021/12/03 09:07:12;;;;;;;21.80;7.85;;;;;;;;;;4990062;28;20054;-65
2021/12/03 09:09:38;;;;;;;13.35;5.85;;;;;;;;;;4985063;28;20055;-65
2021/12/03 09:12:05;;;;;;;18.40;5.93;;;;;;;;;;4981353;28;20051;-65
2021/12/03 09:14:44;;;;;;;19.95;7.05;;;;;;;;;;4979739;28;20105;-65
2021/12/03 09:22:51;;;;;;;15.87;5.50;;;;;;;;;;4977192;28;20086;-65
2021/12/03 09:25:22;;;;;;;22.80;5.90;;;;;;;;;;4988266;28;20074;-65
2021/12/03 09:27:49;;;;;;;18.30;5.80;;;;;;;;;;4987378;28;20078;-65
2021/12/03 09:30:15;;;;;;;25.73;8.98;;;;;;;;;;4983709;28;20105;-65
2021/12/03 09:32:47;;;;;;;14.77;7.70;;;;;;;;;;4983826;28;20100;-65
2021/12/03 09:35:14;;;;;;;11.83;5.73;;;;;;;;;;4987069;28;20161;-66
2021/12/03 09:37:40;;;;;;;12.60;5.75;;;;;;;;;;4983044;28;20092;-65
2021/12/03 09:40:09;;;;;;;16.15;5.57;;;;;;;;;;4985348;28;20086;-65
2021/12/03 09:42:38;;;;;;;15.03;5.53;;;;;;;;;;4982418;28;20133;-65
2021/12/03 09:45:06;;;;;;;15.40;5.43;;;;;;;;;;5001281;28;20054;-66
2021/12/03 09:47:33;;;;;;;23.87;5.60;;;;;;;;;;4999827;28;20046;-65
2021/12/03 09:50:02;;;;;;;17.58;4.93;;;;;;;;;;5003448;28;20046;-66
2021/12/03 09:53:02;;;;;;;20.50;4.87;;;;;;;;;;5002572;28;20123;-65
2021/12/03 09:55:30;;;;;;;19.43;4.20;;;;;;;;;;4990369;28;20177;-65
2021/12/03 10:01:34;;;;;;;16.60;4.30;;;;;;;;;;4981889;28;20498;-65
2021/12/03 10:14:37;;;;;;;10.77;4.87;;;;;;;;;;4998266;28;21186;-65
2021/12/03 10:36:36;;;;;;;12.27;4.03;;;;;;;;;;5002284;28;20046;-66
2021/12/03 10:50:02;;;;;;;10.17;4.17;;;;;;;;;;4982638;28;20057;-65
2021/12/03 10:52:56;;;;;;;15.53;4.40;;;;;;;;;;4983819;28;20078;-66
2021/12/03 10:58:24;;;;;;;16.63;3.93;;;;;;;;;;4987430;28;20082;-66
2021/12/03 12:09:59;;;;;;;15.47;6.07;;;;;;;;;;4998721;28;20129;-67
2021/12/03 12:18:14;;;;;;;10.30;5.33;;;;;;;;;;4997651;28;20517;-66
2021/12/03 12:59:25;;;;;;;14.77;5.57;;;;;;;;;;4987448;28;20054;-66
2021/12/03 13:59:47;;;;;;;;;;;;;;;;;;4925587;28;20190;-66
2021/12/03 14:46:11;;;;;;;12.53;6.00;;;;;;;;;;4984545;28;20081;-66
2021/12/03 14:57:12;;;;;;;18.00;8.37;;;;;;;;;;4978543;28;20082;-66
2021/12/03 14:59:49;;;;;;;22.60;9.87;;;;;;;;;;4985548;28;20082;-66
2021/12/03 15:02:31;;;;;;;20.10;9.13;;;;;;;;;;4980417;28;20050;-66
2021/12/03 15:07:36;;;;;;;18.20;8.97;;;;;;;;;;4974153;28;20047;-66
2021/12/03 15:10:07;;;;;;;15.70;8.03;;;;;;;;;;4978146;28;20141;-66
2021/12/03 15:16:19;;;;;;;17.27;7.80;;;;;;;;;;4981900;28;20132;-66
2021/12/03 15:40:16;;;;;;;14.03;7.00;;;;;;;;;;4978417;28;20133;-66
2021/12/03 15:56:44;;;;;;;17.40;6.70;;;;;;;;;;4983135;28;20566;-66
2021/12/03 16:04:35;;;;;;;13.80;5.60;;;;;;;;;;4985110;28;20062;-66
2021/12/03 16:12:25;;;;;;;8.73;5.30;;;;;;;;;;4988392;28;20137;-66
2021/12/03 16:23:31;;;;;;;8.77;4.37;;;;;;;;;;4980765;28;20086;-66
2021/12/03 16:52:50;;;;;;;6.37;3.97;;;;;;;;;;4978814;28;20097;-66
2021/12/03 16:55:18;;;;;;;3.67;2.70;;;;;;;;;;4980272;28;20444;-66
2021/12/03 16:57:45;;;;;;;;;;;;;;;;;;4980704;28;20385;-66
2021/12/03 17:00:17;;;;;;;7.05;2.72;;;;;;;;;;4983722;28;20017;-66
2021/12/03 17:02:52;;;;;;;6.10;3.17;;;;;;;;;;4984283;28;20050;-66
2021/12/03 17:24:04;;;;;;;8.10;3.20;;;;;;;;;;4985184;28;20137;-66
2021/12/03 17:47:38;;;;;;;5.03;3.15;;;;;;;;;;4997032;28;20050;-66
2021/12/03 17:53:27;;;;;;;5.57;3.37;;;;;;;;;;4999232;28;20121;-66
2021/12/03 18:01:00;;;;;;;5.80;3.55;;;;;;;;;;5001447;28;20051;-66
2021/12/03 18:03:33;;;;;;;5.83;3.50;;;;;;;;;;5001522;28;20096;-66
2021/12/03 18:11:36;;;;;;;2.70;1.97;;;;;;;;;;5004937;28;20083;-66
2021/12/03 18:49:29;;;;;;;6.17;3.10;;;;;;;;;;5004769;28;20129;-66
2021/12/03 18:54:40;;;;;;;6.60;4.13;;;;;;;;;;4998920;28;20050;-66
2021/12/03 18:57:13;;;;;;;7.10;4.13;;;;;;;;;;5006958;28;20217;-66
2021/12/03 18:59:55;;;;;;;5.40;3.57;;;;;;;;;;4987168;28;20084;-66
2021/12/03 19:02:24;;;;;;;3.90;2.80;;;;;;;;;;4995927;28;20089;-66
2021/12/03 19:05:25;;;;;;;5.00;2.90;;;;;;;;;;5005869;28;20104;-66
2021/12/03 19:08:04;;;;;;;;;;;;;;;;;;5001981;28;20046;-66
2021/12/03 19:10:31;;;;;;;7.43;4.57;;;;;;;;;;4996734;28;19971;-66
2021/12/03 19:13:08;;;;;;;8.07;3.37;;;;;;;;;;4999496;28;20145;-66
2021/12/03 19:15:36;;;;;;;5.68;2.72;;;;;;;;;;5004930;28;20541;-66
2021/12/03 19:18:03;;;;;;;;;;;;;;;;;;4999484;28;20074;-66
2021/12/03 19:20:47;;;;;;;7.63;4.30;;;;;;;;;;5000655;28;20011;-66
2021/12/03 19:23:14;;;;;;;6.40;3.00;;;;;;;;;;4997833;28;20566;-66
2021/12/03 19:25:40;;;;;;;7.77;4.47;;;;;;;;;;5000550;28;20134;-66
2021/12/03 19:28:07;;;;;;;7.13;3.65;;;;;;;;;;5005192;28;20494;-66
2021/12/03 19:30:33;;;;;;;5.82;2.78;;;;;;;;;;5007912;28;20046;-66
2021/12/03 19:33:00;;;;;;;9.30;4.67;;;;;;;;;;5007793;28;20165;-66
2021/12/03 19:35:26;;;;;;;6.57;3.50;;;;;;;;;;5001130;28;20125;-66
2021/12/03 19:37:55;;;;;;;9.75;5.18;;;;;;;;;;5005442;28;20285;-66
2021/12/03 19:40:22;;;;;;;8.37;4.73;;;;;;;;;;5007924;28;20162;-66
2021/12/03 19:42:58;;;;;;;;;;;;;;;;;;4995034;28;20146;-66
2021/12/03 19:45:28;;;;;;;8.07;4.03;;;;;;;;;;4980953;28;20005;-66
2021/12/03 19:48:01;;;;;;;7.00;4.07;;;;;;;;;;4980713;28;20078;-66
2021/12/03 19:50:43;;;;;;;10.80;4.90;;;;;;;;;;4992073;28;20444;-66
2021/12/03 19:55:37;;;;;;;9.50;4.10;;;;;;;;;;4985275;28;20128;-66
2021/12/03 19:58:08;;;;;;;10.90;3.80;;;;;;;;;;4986041;28;20046;-66
2021/12/03 20:00:35;;;;;;;9.03;3.57;;;;;;;;;;4986544;28;20047;-66
2021/12/03 20:03:02;;;;;;;7.83;4.20;;;;;;;;;;4985116;28;20050;-66
2021/12/03 20:05:28;;;;;;;8.10;3.95;;;;;;;;;;4986492;28;20489;-66
2021/12/03 20:07:57;;;;;;;9.63;4.17;;;;;;;;;;4984340;28;20090;-66
2021/12/03 20:10:26;;;;;;;10.80;5.50;;;;;;;;;;4986954;28;20138;-66
2021/12/03 20:12:53;;;;;;;10.80;5.37;;;;;;;;;;4990594;28;20133;-66
2021/12/03 20:15:30;;;;;;;8.27;3.60;;;;;;;;;;4983122;28;20133;-66
2021/12/03 20:18:06;;;;;;;7.20;4.22;;;;;;;;;;4984279;28;20053;-66
2021/12/03 20:20:33;;;;;;;9.60;5.20;;;;;;;;;;4985326;28;20077;-66
2021/12/03 20:23:08;;;;;;;8.80;5.22;;;;;;;;;;4982786;28;20129;-66
2021/12/03 20:25:57;;;;;;;6.03;3.30;;;;;;;;;;4983103;28;20082;-66
2021/12/03 20:28:33;;;;;;;8.73;5.03;;;;;;;;;;4973471;28;20125;-66
2021/12/03 20:31:04;;;;;;;7.97;3.57;;;;;;;;;;4985499;28;20303;-66
2021/12/03 20:38:44;;;;;;;13.43;5.60;;;;;;;;;;4985191;28;20455;-66
2021/12/03 20:41:15;;;;;;;12.83;5.87;;;;;;;;;;4981302;28;20094;-66
2021/12/03 20:52:03;;;;;;;10.10;5.93;;;;;;;;;;4979970;28;20050;-66
2021/12/03 21:08:11;;;;;;;12.83;6.50;;;;;;;;;;4981233;28;20499;-66
2021/12/03 21:10:46;;;;;;;15.47;7.67;;;;;;;;;;4980818;28;20050;-66
2021/12/03 21:13:21;;;;;;;14.80;7.20;;;;;;;;;;4979777;28;20134;-66
2021/12/03 21:18:52;;;;;;;18.27;7.73;;;;;;;;;;4983609;28;20066;-66
2021/12/03 21:23:46;;;;;;;15.40;8.50;;;;;;;;;;4977204;28;20129;-67
2021/12/03 21:26:17;;;;;;;;;;;;;;;;;;4976110;28;20399;-66
2021/12/03 21:29:11;;;;;;;15.83;8.77;;;;;;;;;;4984633;28;20028;-66
2021/12/03 21:39:41;;;;;;;13.97;7.83;;;;;;;;;;4979583;28;20207;-66
2021/12/03 21:42:08;;;;;;;15.37;7.17;;;;;;;;;;4980215;28;20086;-66
2021/12/03 21:44:34;;;;;;;18.13;8.57;;;;;;;;;;4981944;28;20081;-66
2021/12/03 21:47:01;;;;;;;14.93;6.90;;;;;;;;;;4978252;28;20483;-66
2021/12/03 21:49:28;;;;;;;12.13;6.10;;;;;;;;;;4981360;28;20074;-67
2021/12/03 21:51:55;;;;;;;13.60;7.70;;;;;;;;;;4982628;28;20141;-67
2021/12/03 21:54:22;;;;;;;15.35;6.72;;;;;;;;;;4983363;28;20138;-66
2021/12/03 21:56:48;;;;;;;17.85;7.40;;;;;;;;;;4985764;28;20493;-66
2021/12/03 21:59:18;;;;;;;13.70;7.40;;;;;;;;;;4976918;28;20051;-66
2021/12/03 22:01:44;;;;;;;10.47;6.17;;;;;;;;;;4977123;28;20133;-67
2021/12/03 22:04:11;;;;;;;16.90;7.30;;;;;;;;;;4977771;28;20050;-67
2021/12/03 22:06:38;;;;;;;8.73;5.25;;;;;;;;;;4979988;28;20286;-66
2021/12/03 22:09:05;;;;;;;;;;;;;;;;;;4976876;28;20470;-66
2021/12/03 22:11:31;;;;;;;8.73;4.73;;;;;;;;;;4983892;28;19976;-66
2021/12/03 22:13:58;;;;;;;9.00;5.03;;;;;;;;;;4983987;28;20133;-67
2021/12/03 22:16:25;;;;;;;10.10;4.60;;;;;;;;;;4982168;28;20160;-66
2021/12/03 22:18:51;;;;;;;9.98;4.85;;;;;;;;;;4985379;28;20085;-67
2021/12/03 22:21:18;;;;;;;7.85;5.10;;;;;;;;;;4983999;28;20074;-66
2021/12/03 22:23:45;;;;;;;11.43;5.38;;;;;;;;;;4987338;28;20060;-67
2021/12/03 22:26:13;;;;;;;13.05;5.38;;;;;;;;;;4982181;28;20047;-66
2021/12/03 22:28:40;;;;;;;6.60;4.40;;;;;;;;;;4987989;28;20134;-67
2021/12/03 22:31:07;;;;;;;7.57;4.53;;;;;;;;;;4985737;28;20511;-66
2021/12/03 22:33:33;;;;;;;;;;;;;;;;;;4980628;28;20142;-66
2021/12/03 22:36:02;;;;;;;7.93;4.13;;;;;;;;;;4983890;28;20008;-67
2021/12/03 22:38:28;;;;;;;9.67;3.97;;;;;;;;;;4985433;28;20161;-67
2021/12/03 22:40:55;;;;;;;5.82;3.05;;;;;;;;;;4982687;28;20129;-66
2021/12/03 22:43:24;;;;;;;7.53;3.90;;;;;;;;;;4981601;28;20141;-67
2021/12/03 22:46:00;;;;;;;9.17;4.07;;;;;;;;;;4982232;28;20475;-67
2021/12/03 22:53:34;;;;;;;9.38;4.22;;;;;;;;;;4983352;28;20081;-66
2021/12/03 22:56:20;;;;;;;7.90;4.73;;;;;;;;;;4978569;28;20178;-66
2021/12/03 22:58:47;;;;;;;8.43;5.13;;;;;;;;;;4980156;28;20078;-67
2021/12/03 23:01:18;;;;;;;5.07;2.93;;;;;;;;;;4978492;28;20125;-67
2021/12/03 23:03:45;;;;;;;9.00;5.50;;;;;;;;;;4976750;28;20348;-67
2021/12/03 23:06:12;;;;;;;;;;;;;;;;;;4978162;28;20454;-66
2021/12/03 23:08:39;;;;;;;9.50;5.23;;;;;;;;;;4984605;28;19960;-67
2021/12/03 23:11:12;;;;;;;5.63;3.17;;;;;;;;;;4983992;28;20049;-67
2021/12/03 23:13:38;;;;;;;8.95;5.72;;;;;;;;;;4979838;28;20113;-67
2021/12/03 23:16:05;;;;;;;8.77;4.30;;;;;;;;;;4984840;28;20046;-66
2021/12/03 23:18:31;;;;;;;5.07;3.28;;;;;;;;;;4983401;28;20510;-66
2021/12/03 23:20:58;;;;;;;4.60;2.55;;;;;;;;;;4982828;28;20070;-66